Time;durP1;ratioP1;P1;durP2;ratioP2;P2;SDS_P1;SDS_P2;PMS_P1;PMS_P2;Temp;Humidity;BMP_temperature;BMP_pressure;BME280_temperature;BME280_humidity;BME280_pressure;Samples;Min_cycle;Max_cycle;Signal;HPM_P1;HPM_P2
2022/12/10 00:01:18;;;;;;;;;;;-2.00;99.90;;;;;;4986690;28;1151;-61
2022/12/10 00:03:44;;;;;;;;;;;-2.00;99.90;;;;;;4970406;28;957;-61
2022/12/10 00:06:11;;;;;;;;;;;-2.10;99.90;;;;;;4987378;28;1910;-61
2022/12/10 00:08:37;;;;;;;;;;;-1.50;99.90;;;;;;4986607;28;1000;-61
2022/12/10 00:11:04;;;;;;;;;;;-2.20;99.90;;;;;;4987656;28;1150;-61
2022/12/10 00:13:30;;;;;;;;;;;-2.20;99.90;;;;;;4974169;28;1165;-61
2022/12/10 00:15:55;;;;;;;;;;;-2.00;99.90;;;;;;4988303;28;1115;-61
2022/12/10 00:18:21;;;;;;;;;;;-2.20;99.90;;;;;;5007137;28;1095;-61
2022/12/10 00:20:47;;;;;;;;;;;-2.20;99.90;;;;;;4994492;28;1345;-61
2022/12/10 00:23:12;;;;;;;;;;;-2.20;99.90;;;;;;4986531;28;1091;-61
2022/12/10 00:25:38;;;;;;;;;;;-2.20;99.90;;;;;;4990628;28;1114;-61
2022/12/10 00:28:04;;;;;;;;;;;-2.10;99.90;;;;;;4991229;28;1914;-61
2022/12/10 00:30:29;;;;;;;;;;;-2.20;99.90;;;;;;4989895;28;1107;-61
2022/12/10 00:32:55;;;;;;;;;;;-2.10;99.90;;;;;;4991020;28;1122;-61
2022/12/10 00:35:21;;;;;;;;;;;-2.00;99.90;;;;;;4991143;28;989;-61
2022/12/10 00:37:46;;;;;;;;;;;-2.00;99.90;;;;;;4990657;28;1266;-61
2022/12/10 00:40:12;;;;;;;;;;;-1.50;99.90;;;;;;4968305;28;1116;-62
2022/12/10 00:42:39;;;;;;;;;;;-1.80;99.90;;;;;;4991071;28;1091;-61
2022/12/10 00:45:05;;;;;;;;;;;-1.70;99.90;;;;;;4989017;28;1158;-61
2022/12/10 00:47:30;;;;;;;;;;;-1.70;99.90;;;;;;4972914;28;1918;-61
2022/12/10 00:49:57;;;;;;;;;;;-1.70;99.90;;;;;;4973346;28;1132;-61
2022/12/10 00:52:22;;;;;;;;;;;-1.60;99.90;;;;;;4990224;28;1202;-61
2022/12/10 00:54:48;;;;;;;;;;;-1.50;99.90;;;;;;4990362;28;1131;-61
2022/12/10 00:57:14;;;;;;;;;;;-1.50;99.90;;;;;;4990754;28;1107;-61
2022/12/10 00:59:39;;;;;;;;;;;-1.50;99.90;;;;;;4988574;28;1134;-62
2022/12/10 01:02:05;;;;;;;;;;;-1.50;99.90;;;;;;4972745;28;1015;-61
2022/12/10 01:04:30;;;;;;;;;;;-1.50;99.90;;;;;;4977562;28;2073;-61
2022/12/10 01:06:56;;;;;;;;;;;-1.40;99.90;;;;;;5001890;28;1926;-61
2022/12/10 01:09:23;;;;;;;;;;;-1.40;99.90;;;;;;4990309;28;1222;-61
2022/12/10 01:11:52;;;;;;;;;;;-1.40;99.90;;;;;;4972200;28;1635;-61
2022/12/10 01:14:19;;;;;;;;;;;-1.30;99.90;;;;;;4982226;28;1497;-61
2022/12/10 01:16:47;;;;;;;;;;;-1.30;99.90;;;;;;4989915;28;1159;-61
2022/12/10 01:19:13;;;;;;;;;;;-1.20;99.90;;;;;;4989644;28;1150;-61
2022/12/10 01:21:39;;;;;;;;;;;-1.30;99.90;;;;;;4972012;28;1510;-61
2022/12/10 01:24:05;;;;;;;;;;;-1.30;99.90;;;;;;4989954;28;1112;-61
2022/12/10 01:26:31;;;;;;;;;;;-1.40;99.90;;;;;;4989389;28;1942;-61
2022/12/10 01:28:57;;;;;;;;;;;-1.20;99.90;;;;;;4972637;28;1084;-61
2022/12/10 01:31:25;;;;;;;;;;;-1.40;99.90;;;;;;4989863;28;1095;-61
2022/12/10 01:33:51;;;;;;;;;;;-1.40;99.90;;;;;;4989483;28;1185;-61
2022/12/10 01:36:20;;;;;;;;;;;-1.40;99.90;;;;;;4987639;28;984;-61
2022/12/10 01:38:46;;;;;;;;;;;-1.50;99.90;;;;;;4989400;28;1834;-61
2022/12/10 01:41:14;;;;;;;;;;;-1.20;99.90;;;;;;4988026;28;1098;-61
2022/12/10 01:43:49;;;;;;;;;;;-1.50;99.90;;;;;;4989714;28;1103;-61
2022/12/10 01:46:15;;;;;;;;;;;-1.50;99.90;;;;;;4989424;28;2015;-61
2022/12/10 01:48:41;;;;;;;;;;;-1.60;99.90;;;;;;4988969;28;1060;-61
2022/12/10 01:51:07;;;;;;;;;;;-1.70;99.90;;;;;;4971992;28;1362;-61
2022/12/10 01:53:33;;;;;;;;;;;-1.70;99.90;;;;;;4989267;28;1158;-61
2022/12/10 01:55:59;;;;;;;;;;;-1.80;99.90;;;;;;4988850;28;1126;-61
2022/12/10 01:58:25;;;;;;;;;;;-1.90;99.90;;;;;;4988023;28;1171;-61
2022/12/10 02:00:57;;;;;;;;;;;-1.90;99.90;;;;;;4988478;28;1091;-61
2022/12/10 02:03:31;;;;;;;;;;;-1.90;99.90;;;;;;4989430;28;1134;-61
2022/12/10 02:06:01;;;;;;;;;;;-1.90;99.90;;;;;;4970782;28;1131;-61
2022/12/10 02:08:32;;;;;;;;;;;-1.70;99.90;;;;;;4988335;28;1964;-61
2022/12/10 02:11:04;;;;;;;;;;;-2.00;99.90;;;;;;4989016;28;1356;-61
2022/12/10 02:13:38;;;;;;;;;;;-1.90;99.90;;;;;;4996397;28;1255;-61
2022/12/10 02:16:07;;;;;;;;;;;-2.00;99.90;;;;;;4970431;28;1123;-61
2022/12/10 02:18:49;;;;;;;;;;;-2.00;99.90;;;;;;4988932;28;1252;-61
2022/12/10 02:21:17;;;;;;;;;;;-2.00;99.90;;;;;;4993979;28;1226;-61
2022/12/10 02:23:46;;;;;;;;;;;-1.40;99.90;;;;;;4978684;28;1104;-61
2022/12/10 02:26:24;;;;;;;;;;;-1.90;99.90;;;;;;4994985;28;1910;-61
2022/12/10 02:29:04;;;;;;;;;;;-1.90;99.90;;;;;;4990089;28;1183;-61
2022/12/10 02:31:31;;;;;;;;;;;-2.00;99.90;;;;;;4993921;28;1308;-61
2022/12/10 02:33:58;;;;;;;;;;;-2.00;99.90;;;;;;4988801;28;1062;-61
2022/12/10 02:36:26;;;;;;;;;;;-2.00;99.90;;;;;;4988788;28;1091;-61
2022/12/10 02:38:52;;;;;;;;;;;-1.90;99.90;;;;;;4978388;28;1345;-61
2022/12/10 02:41:23;;;;;;;;;;;-1.90;99.90;;;;;;4995324;28;1095;-61
2022/12/10 02:43:51;;;;;;;;;;;-1.70;99.90;;;;;;4995253;28;1300;-61
2022/12/10 02:46:17;;;;;;;;;;;-1.40;99.90;;;;;;4995962;28;1977;-61
2022/12/10 02:48:45;;;;;;;;;;;-1.80;99.90;;;;;;4975912;28;1229;-60
2022/12/10 02:51:11;;;;;;;;;;;-1.70;99.90;;;;;;4975602;28;1194;-61
2022/12/10 02:53:45;;;;;;;;;;;-1.80;99.90;;;;;;4994827;28;1277;-61
2022/12/10 02:56:16;;;;;;;;;;;-1.80;99.90;;;;;;4995264;28;1319;-61
2022/12/10 02:58:54;;;;;;;;;;;-1.80;99.90;;;;;;4977592;28;1229;-61
2022/12/10 03:01:30;;;;;;;;;;;-1.90;99.90;;;;;;4988295;28;1201;-61
2022/12/10 03:03:59;;;;;;;;;;;-1.90;99.90;;;;;;4991782;28;1202;-61
2022/12/10 03:06:29;;;;;;;;;;;-1.50;99.90;;;;;;4993754;28;1911;-61
2022/12/10 03:09:01;;;;;;;;;;;-1.90;99.90;;;;;;4989678;28;1213;-60
2022/12/10 03:11:27;;;;;;;;;;;-1.90;99.90;;;;;;4992936;28;1278;-60
2022/12/10 03:14:02;;;;;;;;;;;-1.80;99.90;;;;;;5000404;28;1161;-61
2022/12/10 03:16:32;;;;;;;;;;;-1.90;99.90;;;;;;4987953;28;1092;-61
2022/12/10 03:19:01;;;;;;;;;;;-1.90;99.90;;;;;;4969866;28;1171;-61
2022/12/10 03:21:28;;;;;;;;;;;-1.80;99.90;;;;;;4987915;28;1134;-61
2022/12/10 03:23:54;;;;;;;;;;;-1.20;99.90;;;;;;4988316;28;1111;-61
2022/12/10 03:26:21;;;;;;;;;;;-1.40;99.90;;;;;;4987592;28;1906;-61
2022/12/10 03:28:50;;;;;;;;;;;-1.40;99.90;;;;;;4970223;28;1116;-61
2022/12/10 03:31:16;;;;;;;;;;;-1.80;99.90;;;;;;4988172;28;1020;-61
2022/12/10 03:33:43;;;;;;;;;;;-1.80;99.90;;;;;;4987216;28;1099;-61
2022/12/10 03:36:09;;;;;;;;;;;-1.80;99.90;;;;;;4987760;28;1118;-61
2022/12/10 03:38:35;;;;;;;;;;;-1.20;99.90;;;;;;4988919;28;1259;-60
2022/12/10 03:41:01;;;;;;;;;;;-1.00;99.90;;;;;;5006943;28;1148;-60
2022/12/10 03:43:26;;;;;;;;;;;-1.80;99.90;;;;;;5007317;28;1098;-60
2022/12/10 03:45:52;;;;;;;;;;;-1.80;99.90;;;;;;5007717;28;1174;-60
2022/12/10 03:48:17;;;;;;;;;;;-1.70;99.90;;;;;;4988836;28;2050;-61
2022/12/10 03:50:43;;;;;;;;;;;-1.30;99.90;;;;;;5007248;28;1110;-61
2022/12/10 03:53:09;;;;;;;;;;;-1.60;99.90;;;;;;5007450;28;1122;-61
2022/12/10 03:55:34;;;;;;;;;;;-1.60;99.90;;;;;;4989494;28;925;-61
2022/12/10 03:58:00;;;;;;;;;;;-1.20;99.90;;;;;;5006905;28;1114;-60
2022/12/10 04:00:25;;;;;;;;;;;-1.60;99.90;;;;;;5010081;28;1142;-61
2022/12/10 04:02:51;;;;;;;;;;;-0.80;99.90;;;;;;5011239;28;1087;-60
2022/12/10 04:05:17;;;;;;;;;;;-1.60;99.90;;;;;;4987476;28;1117;-60
2022/12/10 04:07:42;;;;;;;;;;;-1.60;99.90;;;;;;4990788;28;1919;-60
2022/12/10 04:10:08;;;;;;;;;;;-1.60;99.90;;;;;;4973937;28;1319;-61
2022/12/10 04:12:34;;;;;;;;;;;-1.60;99.90;;;;;;4973640;28;1056;-60
2022/12/10 04:17:44;;;;;;;;;;;-1.70;99.90;;;;;;5010849;28;1142;-61
2022/12/10 04:26:51;;;;;;;;;;;-1.80;99.90;;;;;;5010709;28;1185;-61
2022/12/10 04:28:24;;;;;;;;;;;-1.30;99.90;;;;;;4990333;28;1988;-61
2022/12/10 04:30:49;;;;;;;;;;;-1.90;99.90;;;;;;4991174;28;1162;-61
2022/12/10 04:33:15;;;;;;;;;;;-1.80;99.90;;;;;;4991348;28;1282;-61
2022/12/10 04:35:41;;;;;;;;;;;-1.70;99.90;;;;;;4990228;28;1089;-60
2022/12/10 04:38:06;;;;;;;;;;;-1.60;99.90;;;;;;4973320;28;1636;-61
2022/12/10 04:40:32;;;;;;;;;;;-1.80;99.90;;;;;;5003807;28;1118;-61
2022/12/10 04:42:58;;;;;;;;;;;-1.60;99.90;;;;;;5009500;28;1201;-60
2022/12/10 04:45:23;;;;;;;;;;;-1.70;99.90;;;;;;4992825;28;1153;-60
2022/12/10 04:47:49;;;;;;;;;;;-1.80;99.90;;;;;;5002706;28;2351;-60
2022/12/10 04:50:14;;;;;;;;;;;-1.70;99.90;;;;;;4989767;28;1646;-60
2022/12/10 04:52:40;;;;;;;;;;;-1.70;99.90;;;;;;4990748;28;1354;-61
2022/12/10 04:55:06;;;;;;;;;;;-1.60;99.90;;;;;;4989424;28;1454;-60
2022/12/10 04:57:32;;;;;;;;;;;-1.60;99.90;;;;;;4989290;28;1371;-61
2022/12/10 04:59:57;;;;;;;;;;;-1.60;99.90;;;;;;4990594;28;1306;-60
2022/12/10 05:02:23;;;;;;;;;;;-1.70;99.90;;;;;;4990446;28;1157;-60
2022/12/10 05:04:49;;;;;;;;;;;-1.50;99.90;;;;;;4989222;28;1579;-60
2022/12/10 05:07:15;;;;;;;;;;;-1.70;99.90;;;;;;4977519;28;1930;-60
2022/12/10 05:09:40;;;;;;;;;;;-1.80;99.90;;;;;;4956343;28;1296;-60
2022/12/10 05:12:06;;;;;;;;;;;-1.80;99.90;;;;;;4987738;28;1281;-60
2022/12/10 05:14:32;;;;;;;;;;;-1.80;99.90;;;;;;4989762;28;1178;-61
2022/12/10 05:16:57;;;;;;;;;;;-1.80;99.90;;;;;;5009075;28;1150;-60
2022/12/10 05:19:25;;;;;;;;;;;-1.80;99.90;;;;;;5008758;28;1149;-61
2022/12/10 05:24:36;;;;;;;;;;;-1.60;99.90;;;;;;4991654;28;1071;-61
2022/12/10 05:27:02;;;;;;;;;;;-1.20;99.90;;;;;;5009281;28;1983;-60
2022/12/10 05:29:27;;;;;;;;;;;-1.80;99.90;;;;;;4983384;28;1318;-60
2022/12/10 05:31:53;;;;;;;;;;;-1.30;99.90;;;;;;4989656;28;1080;-61
2022/12/10 05:34:19;;;;;;;;;;;-1.70;99.90;;;;;;4989720;28;1079;-61
2022/12/10 05:36:44;;;;;;;;;;;-1.70;99.90;;;;;;4990129;28;1108;-60
2022/12/10 05:39:10;;;;;;;;;;;-2.00;99.90;;;;;;4991288;28;1154;-61
2022/12/10 05:41:37;;;;;;;;;;;-1.80;99.90;;;;;;5007951;28;1182;-61
2022/12/10 05:44:03;;;;;;;;;;;-2.10;99.90;;;;;;5009309;28;1145;-60
2022/12/10 05:46:30;;;;;;;;;;;-2.00;99.90;;;;;;5008797;28;1969;-60
2022/12/10 05:48:56;;;;;;;;;;;-2.10;99.90;;;;;;4989576;28;1132;-61
2022/12/10 05:51:23;;;;;;;;;;;-2.10;99.90;;;;;;4989881;28;1183;-61
2022/12/10 05:53:49;;;;;;;;;;;-2.10;99.90;;;;;;4988780;28;1091;-61
2022/12/10 05:56:18;;;;;;;;;;;-2.10;99.90;;;;;;4989769;28;1103;-61
2022/12/10 05:58:44;;;;;;;;;;;-1.80;99.90;;;;;;4989623;28;1209;-61
2022/12/10 06:01:12;;;;;;;;;;;-2.10;99.90;;;;;;4971244;28;2111;-61
2022/12/10 06:03:38;;;;;;;;;;;-2.10;99.90;;;;;;4988889;28;1263;-61
2022/12/10 06:06:04;;;;;;;;;;;-2.10;99.90;;;;;;4989052;28;1325;-60
2022/12/10 06:08:30;;;;;;;;;;;-2.10;99.90;;;;;;4988582;28;1906;-61
2022/12/10 06:10:57;;;;;;;;;;;-2.00;99.90;;;;;;4988672;28;1105;-61
2022/12/10 06:13:23;;;;;;;;;;;-1.60;99.90;;;;;;5003039;28;1136;-61
2022/12/10 06:15:49;;;;;;;;;;;-1.90;99.90;;;;;;4988609;28;1107;-61
2022/12/10 06:18:14;;;;;;;;;;;-2.00;99.90;;;;;;4988890;28;1163;-61
2022/12/10 06:20:40;;;;;;;;;;;-1.90;99.90;;;;;;4988865;28;1107;-61
2022/12/10 06:23:06;;;;;;;;;;;-1.90;99.90;;;;;;4988069;28;1107;-61
2022/12/10 06:25:32;;;;;;;;;;;-1.70;99.90;;;;;;4989094;28;1158;-61
2022/12/10 06:27:58;;;;;;;;;;;-1.80;99.90;;;;;;4988117;28;1965;-61
2022/12/10 06:30:24;;;;;;;;;;;-1.70;99.90;;;;;;4990333;28;1100;-61
2022/12/10 06:32:49;;;;;;;;;;;-1.70;99.90;;;;;;4990859;28;1107;-61
2022/12/10 06:35:15;;;;;;;;;;;-1.20;99.90;;;;;;4989790;28;1104;-61
2022/12/10 06:37:41;;;;;;;;;;;-1.70;99.90;;;;;;4990573;28;1298;-61
2022/12/10 06:40:07;;;;;;;;;;;-1.70;99.90;;;;;;4990781;28;1261;-61
2022/12/10 06:42:32;;;;;;;;;;;-1.70;99.90;;;;;;4989640;28;1099;-61
2022/12/10 06:44:58;;;;;;;;;;;-1.40;99.90;;;;;;4990812;28;1119;-61
2022/12/10 06:47:24;;;;;;;;;;;-1.70;99.90;;;;;;4990762;28;1968;-61
2022/12/10 06:49:49;;;;;;;;;;;-1.80;99.90;;;;;;4988888;28;1123;-61
2022/12/10 06:52:15;;;;;;;;;;;-1.80;99.90;;;;;;4988549;28;1099;-61
2022/12/10 06:54:41;;;;;;;;;;;-1.80;99.90;;;;;;4988460;28;956;-61
2022/12/10 06:57:07;;;;;;;;;;;-1.80;99.90;;;;;;4969940;28;1119;-61
2022/12/10 06:59:33;;;;;;;;;;;-1.90;99.90;;;;;;4988563;28;1095;-61
2022/12/10 07:01:58;;;;;;;;;;;-1.80;99.90;;;;;;4970090;28;1108;-61
2022/12/10 07:04:24;;;;;;;;;;;-1.90;99.90;;;;;;4987100;28;1612;-61
2022/12/10 07:06:50;;;;;;;;;;;-1.90;99.90;;;;;;4988220;28;1898;-61
2022/12/10 07:09:16;;;;;;;;;;;-1.90;99.90;;;;;;4988415;28;1399;-61
2022/12/10 07:11:42;;;;;;;;;;;-1.90;99.90;;;;;;4972854;28;1138;-61
2022/12/10 07:14:09;;;;;;;;;;;-2.00;99.90;;;;;;4981028;28;1142;-61
2022/12/10 07:16:34;;;;;;;;;;;-2.00;99.90;;;;;;4989668;28;1206;-61
2022/12/10 07:19:01;;;;;;;;;;;-2.00;99.90;;;;;;4986656;28;1234;-61
2022/12/10 07:21:30;;;;;;;;;;;-2.00;99.90;;;;;;4987716;28;1253;-61
2022/12/10 07:23:57;;;;;;;;;;;-2.00;99.90;;;;;;4961157;28;1080;-61
2022/12/10 07:26:24;;;;;;;;;;;-2.00;99.90;;;;;;4987005;28;1910;-61
2022/12/10 07:28:50;;;;;;;;;;;-2.10;99.90;;;;;;4987983;28;1125;-61
2022/12/10 07:31:18;;;;;;;;;;;-1.30;99.90;;;;;;4987313;28;1111;-61
2022/12/10 07:33:44;;;;;;;;;;;-2.20;99.90;;;;;;4969161;28;1099;-61
2022/12/10 07:36:11;;;;;;;;;;;-2.30;99.90;;;;;;4988294;28;1095;-61
2022/12/10 07:38:36;;;;;;;;;;;-2.30;99.90;;;;;;4987891;28;1321;-61
2022/12/10 07:41:04;;;;;;;;;;;-2.30;99.90;;;;;;4977223;28;1256;-61
2022/12/10 07:43:30;;;;;;;;;;;-2.30;99.90;;;;;;4988146;28;1154;-61
2022/12/10 07:45:55;;;;;;;;;;;-2.40;99.90;;;;;;4987759;28;1072;-61
2022/12/10 07:48:21;;;;;;;;;;;-2.30;99.90;;;;;;4998065;28;2050;-61
2022/12/10 07:50:54;;;;;;;;;;;-2.30;99.90;;;;;;5007505;28;1070;-61
2022/12/10 07:53:20;;;;;;;;;;;-2.20;99.90;;;;;;5006830;28;1165;-61
2022/12/10 07:55:46;;;;;;;;;;;-2.20;99.90;;;;;;4989248;28;1088;-61
2022/12/10 07:58:11;;;;;;;;;;;-2.20;99.90;;;;;;5007334;28;1165;-61
2022/12/10 08:00:37;;;;;;;;;;;-2.10;99.90;;;;;;4994583;28;1098;-62
2022/12/10 08:03:03;;;;;;;;;;;-2.10;99.90;;;;;;4987430;28;1174;-61
2022/12/10 08:05:28;;;;;;;;;;;-2.00;99.90;;;;;;4987330;28;1145;-61
2022/12/10 08:07:54;;;;;;;;;;;-2.10;99.90;;;;;;4986711;28;1973;-62
2022/12/10 08:10:20;;;;;;;;;;;-1.70;99.90;;;;;;4989219;28;1306;-61
2022/12/10 08:12:45;;;;;;;;;;;-2.00;99.90;;;;;;4987836;28;1061;-61
2022/12/10 08:15:11;;;;;;;;;;;-2.10;99.90;;;;;;4995395;28;1134;-61
2022/12/10 08:17:37;;;;;;;;;;;-2.10;99.90;;;;;;4987208;28;1273;-61
2022/12/10 08:20:03;;;;;;;;;;;-1.90;99.90;;;;;;4987707;28;1166;-61
2022/12/10 08:22:29;;;;;;;;;;;-2.00;99.90;;;;;;4987090;28;1095;-61
2022/12/10 08:24:54;;;;;;;;;;;-2.10;99.90;;;;;;4987252;28;1083;-61
2022/12/10 08:27:20;;;;;;;;;;;-1.60;99.90;;;;;;4987823;28;1977;-61
2022/12/10 08:29:46;;;;;;;;;;;-2.00;99.90;;;;;;4986975;28;1100;-62
2022/12/10 08:32:11;;;;;;;;;;;-1.60;99.90;;;;;;4969752;28;1088;-61
2022/12/10 08:34:37;;;;;;;;;;;-2.00;99.90;;;;;;4986620;28;1115;-61
2022/12/10 08:37:03;;;;;;;;;;;-1.90;99.90;;;;;;4986818;28;1310;-61
2022/12/10 08:39:30;;;;;;;;;;;-1.20;99.90;;;;;;4987964;28;1305;-62
2022/12/10 08:41:56;;;;;;;;;;;-1.80;99.90;;;;;;4986180;28;1273;-62
2022/12/10 08:44:22;;;;;;;;;;;-1.10;99.90;;;;;;4986597;28;3199;-62
2022/12/10 08:46:47;;;;;;;;;;;-1.60;99.90;;;;;;4987746;28;3489;-61
2022/12/10 08:49:13;;;;;;;;;;;-1.60;99.90;;;;;;4989818;28;1475;-62
2022/12/10 08:51:41;;;;;;;;;;;-1.60;99.90;;;;;;4981197;28;1107;-61
2022/12/10 08:54:06;;;;;;;;;;;-0.80;99.90;;;;;;4990657;28;1199;-62
2022/12/10 08:56:32;;;;;;;;;;;-1.50;99.90;;;;;;4989371;28;1221;-62
2022/12/10 08:58:58;;;;;;;;;;;-1.50;99.90;;;;;;4996405;28;1202;-62
2022/12/10 09:01:23;;;;;;;;;;;-1.40;99.90;;;;;;5009513;28;1086;-62
2022/12/10 09:03:50;;;;;;;;;;;-1.40;99.90;;;;;;4988105;28;1123;-62
2022/12/10 09:06:17;;;;;;;;;;;-1.30;99.90;;;;;;4972571;28;1258;-62
2022/12/10 09:08:43;;;;;;;;;;;-1.20;99.90;;;;;;4989792;28;1915;-62
2022/12/10 09:11:10;;;;;;;;;;;-0.90;99.90;;;;;;4989332;28;1092;-62
2022/12/10 09:13:36;;;;;;;;;;;-1.10;99.90;;;;;;4994782;28;1169;-62
2022/12/10 09:16:01;;;;;;;;;;;-0.50;99.90;;;;;;4989658;28;1142;-62
2022/12/10 09:18:27;;;;;;;;;;;-0.40;99.90;;;;;;4990490;28;1150;-62
2022/12/10 09:20:53;;;;;;;;;;;-0.80;99.90;;;;;;4989938;28;1063;-62
2022/12/10 09:23:19;;;;;;;;;;;-0.70;99.90;;;;;;4972341;28;1116;-62
2022/12/10 09:25:44;;;;;;;;;;;-0.70;99.90;;;;;;4989093;28;1269;-62
2022/12/10 09:28:11;;;;;;;;;;;-0.60;99.90;;;;;;4990262;28;1930;-62
2022/12/10 09:30:37;;;;;;;;;;;-0.40;99.90;;;;;;4989080;28;1225;-62
2022/12/10 09:33:02;;;;;;;;;;;-0.30;99.90;;;;;;4988572;28;1536;-62
2022/12/10 09:35:28;;;;;;;;;;;-0.30;99.90;;;;;;4989931;28;1406;-62
2022/12/10 09:37:54;;;;;;;;;;;-0.30;99.90;;;;;;4989787;28;1304;-63
2022/12/10 09:40:24;;;;;;;;;;;0.00;99.90;;;;;;4989827;28;1556;-62
2022/12/10 09:42:51;;;;;;;;;;;-0.10;99.90;;;;;;4989880;28;1146;-62
2022/12/10 09:45:26;;;;;;;;;;;0.00;99.90;;;;;;4989350;28;1170;-62
2022/12/10 09:47:57;;;;;;;;;;;0.20;99.90;;;;;;4996913;28;1975;-62
2022/12/10 09:50:28;;;;;;;;;;;0.70;99.90;;;;;;4998903;28;1154;-62
2022/12/10 09:52:57;;;;;;;;;;;1.30;99.90;;;;;;4987931;28;1218;-62
2022/12/10 09:55:31;;;;;;;;;;;1.90;99.90;;;;;;4989857;28;1245;-62
2022/12/10 09:57:57;;;;;;;;;;;2.00;99.90;;;;;;4988792;28;1241;-62
2022/12/10 10:00:23;;;;;;;;;;;2.20;99.90;;;;;;4988500;28;1091;-62
2022/12/10 10:02:50;;;;;;;;;;;2.30;99.90;;;;;;4990078;28;1210;-62
2022/12/10 10:05:19;;;;;;;;;;;2.40;99.90;;;;;;4995060;28;1230;-62
2022/12/10 10:07:48;;;;;;;;;;;2.50;99.90;;;;;;4996224;28;1965;-62
2022/12/10 10:10:25;;;;;;;;;;;2.90;99.90;;;;;;4993510;28;1102;-62
2022/12/10 10:12:52;;;;;;;;;;;3.20;99.90;;;;;;4995200;28;1132;-63
2022/12/10 10:15:22;;;;;;;;;;;3.20;99.90;;;;;;4994859;28;1133;-62
2022/12/10 10:17:49;;;;;;;;;;;2.80;99.90;;;;;;5008854;28;1099;-62
2022/12/10 10:20:15;;;;;;;;;;;2.50;99.90;;;;;;5001374;28;1158;-62
2022/12/10 10:22:42;;;;;;;;;;;2.00;99.90;;;;;;4972157;28;1096;-63
2022/12/10 10:25:13;;;;;;;;;;;2.00;99.90;;;;;;4980875;28;1332;-62
2022/12/10 10:27:38;;;;;;;;;;;2.00;99.90;;;;;;4987834;28;1911;-62
2022/12/10 10:30:04;;;;;;;;;;;1.80;99.90;;;;;;4985908;28;1072;-62
2022/12/10 10:32:30;;;;;;;;;;;1.60;99.90;;;;;;4990066;28;1679;-62
2022/12/10 10:34:58;;;;;;;;;;;1.50;99.90;;;;;;4989971;28;1273;-62
2022/12/10 10:37:26;;;;;;;;;;;1.40;99.90;;;;;;4989116;28;1215;-62
2022/12/10 10:39:52;;;;;;;;;;;1.70;99.90;;;;;;4990898;28;1526;-62
2022/12/10 10:42:25;;;;;;;;;;;1.80;99.90;;;;;;4988309;28;1300;-62
2022/12/10 10:44:50;;;;;;;;;;;1.80;99.90;;;;;;4989645;28;1213;-62
2022/12/10 10:47:27;;;;;;;;;;;2.00;99.90;;;;;;4987891;28;1918;-62
2022/12/10 10:49:53;;;;;;;;;;;2.30;99.90;;;;;;4998099;28;1209;-62
2022/12/10 10:52:18;;;;;;;;;;;2.50;99.90;;;;;;5008283;28;1123;-62
2022/12/10 10:54:44;;;;;;;;;;;2.40;99.90;;;;;;5008364;28;1138;-62
2022/12/10 10:57:15;;;;;;;;;;;1.90;99.90;;;;;;4989438;28;1182;-62
2022/12/10 10:59:41;;;;;;;;;;;1.20;99.90;;;;;;4988387;28;1170;-62
2022/12/10 11:02:18;;;;;;;;;;;0.90;99.90;;;;;;4988278;28;1107;-62
2022/12/10 11:04:47;;;;;;;;;;;0.40;99.90;;;;;;4988181;28;1384;-61
2022/12/10 11:07:18;;;;;;;;;;;0.00;99.90;;;;;;4987979;28;1935;-62
2022/12/10 11:09:44;;;;;;;;;;;-0.10;99.90;;;;;;4969843;28;1112;-62
2022/12/10 11:12:22;;;;;;;;;;;-0.30;99.90;;;;;;4995450;28;1073;-62
2022/12/10 11:14:48;;;;;;;;;;;-0.50;99.90;;;;;;4993124;28;1184;-62
2022/12/10 11:17:14;;;;;;;;;;;-0.70;99.90;;;;;;4987453;28;1130;-61
2022/12/10 11:19:43;;;;;;;;;;;-0.80;99.90;;;;;;4970436;28;2046;-61
2022/12/10 11:22:17;;;;;;;;;;;-0.80;99.90;;;;;;4987886;28;1103;-61
2022/12/10 11:24:42;;;;;;;;;;;-0.90;99.90;;;;;;4987111;28;1154;-62
2022/12/10 11:27:13;;;;;;;;;;;-0.90;99.90;;;;;;4987936;28;1972;-61
2022/12/10 11:29:46;;;;;;;;;;;-0.60;99.90;;;;;;4970423;28;1112;-62
2022/12/10 11:32:20;;;;;;;;;;;-0.90;99.90;;;;;;4987629;28;1133;-62
2022/12/10 11:34:52;;;;;;;;;;;-0.90;99.90;;;;;;4987925;28;1130;-61
2022/12/10 11:37:31;;;;;;;;;;;-0.90;99.90;;;;;;4982354;28;3072;-61
2022/12/10 11:40:06;;;;;;;;;;;-0.90;99.90;;;;;;4987562;28;1332;-62
2022/12/10 11:42:35;;;;;;;;;;;-0.90;99.90;;;;;;4987825;28;1119;-62
2022/12/10 11:45:06;;;;;;;;;;;-0.90;99.90;;;;;;4987073;28;1158;-62
2022/12/10 11:47:50;;;;;;;;;;;-0.40;99.90;;;;;;4987560;28;1965;-62
2022/12/10 11:50:24;;;;;;;;;;;-0.80;99.90;;;;;;4988027;28;1166;-62
2022/12/10 11:52:56;;;;;;;;;;;-0.60;99.90;;;;;;4986944;28;1103;-61
2022/12/10 11:55:30;;;;;;;;;;;-0.50;99.90;;;;;;4987916;28;1103;-62
2022/12/10 11:58:11;;;;;;;;;;;-0.40;99.90;;;;;;4987682;28;1162;-62
2022/12/10 12:00:51;;;;;;;;;;;-0.40;99.90;;;;;;4986780;28;1162;-62
2022/12/10 12:03:31;;;;;;;;;;;-0.20;99.90;;;;;;4987671;28;1134;-62
2022/12/10 12:06:04;;;;;;;;;;;0.00;99.90;;;;;;4986605;28;1230;-62
2022/12/10 12:08:33;;;;;;;;;;;0.10;99.90;;;;;;4987839;28;1966;-62
2022/12/10 12:11:01;;;;;;;;;;;0.20;99.90;;;;;;4987889;28;1106;-62
2022/12/10 12:13:27;;;;;;;;;;;0.30;99.90;;;;;;5000237;28;1149;-59
2022/12/10 12:15:57;;;;;;;;;;;0.30;99.90;;;;;;4987823;28;1103;-60
2022/12/10 12:18:27;;;;;;;;;;;0.40;99.90;;;;;;4987646;28;1091;-60
2022/12/10 12:20:55;;;;;;;;;;;0.40;99.90;;;;;;4974283;28;1338;-59
2022/12/10 12:23:29;;;;;;;;;;;0.30;99.90;;;;;;4991706;28;1099;-60
2022/12/10 12:25:59;;;;;;;;;;;0.30;99.90;;;;;;4989147;28;1262;-59
2022/12/10 12:28:36;;;;;;;;;;;0.40;99.90;;;;;;4991054;28;1966;-59
2022/12/10 12:31:06;;;;;;;;;;;0.30;99.90;;;;;;4988903;28;1186;-59
2022/12/10 12:33:38;;;;;;;;;;;0.20;99.90;;;;;;4992023;28;1257;-59
2022/12/10 12:36:06;;;;;;;;;;;0.20;99.90;;;;;;4983854;28;1052;-60
2022/12/10 12:38:37;;;;;;;;;;;0.20;99.90;;;;;;4997091;28;1595;-60
2022/12/10 12:41:04;;;;;;;;;;;0.10;99.90;;;;;;4990194;28;1615;-59
2022/12/10 12:43:49;;;;;;;;;;;0.10;99.90;;;;;;4990460;28;1181;-60
2022/12/10 12:46:19;;;;;;;;;;;0.10;99.90;;;;;;4990962;28;1233;-60
2022/12/10 12:48:46;;;;;;;;;;;0.00;99.90;;;;;;4972225;28;2070;-60
2022/12/10 12:51:17;;;;;;;;;;;0.00;99.90;;;;;;4990696;28;1099;-60
2022/12/10 12:53:43;;;;;;;;;;;0.00;99.90;;;;;;4990736;28;1123;-60
2022/12/10 12:56:29;;;;;;;;;;;-0.10;99.90;;;;;;4990174;28;1091;-60
2022/12/10 12:59:02;;;;;;;;;;;0.10;99.90;;;;;;4990360;28;1174;-60
2022/12/10 13:01:37;;;;;;;;;;;-0.10;99.90;;;;;;4973218;28;1135;-60
2022/12/10 13:04:04;;;;;;;;;;;-0.20;99.90;;;;;;4989947;28;1103;-60
2022/12/10 13:06:32;;;;;;;;;;;-0.20;99.90;;;;;;4989823;28;1504;-60
2022/12/10 13:09:08;;;;;;;;;;;-0.30;99.90;;;;;;4991136;28;1257;-60
2022/12/10 13:11:35;;;;;;;;;;;-0.30;99.90;;;;;;4994112;28;1068;-60
2022/12/10 13:14:07;;;;;;;;;;;-0.40;99.90;;;;;;5003266;28;1177;-60
2022/12/10 13:16:41;;;;;;;;;;;-0.50;99.90;;;;;;4991879;28;1095;-60
2022/12/10 13:19:18;;;;;;;;;;;-0.60;99.90;;;;;;4992132;28;1119;-60
2022/12/10 13:21:50;;;;;;;;;;;-0.60;99.90;;;;;;4991844;28;1162;-60
2022/12/10 13:24:18;;;;;;;;;;;-0.70;99.90;;;;;;4974107;28;1175;-60
2022/12/10 13:27:04;;;;;;;;;;;-0.70;99.90;;;;;;4992343;28;1981;-60
2022/12/10 13:29:43;;;;;;;;;;;-0.70;99.90;;;;;;4991883;28;1087;-60
2022/12/10 13:32:15;;;;;;;;;;;-0.70;99.90;;;;;;4990214;28;1083;-60
2022/12/10 13:34:41;;;;;;;;;;;-0.80;99.90;;;;;;4992064;28;1142;-60
2022/12/10 13:37:13;;;;;;;;;;;-0.80;99.90;;;;;;4989260;28;2972;-60
2022/12/10 13:39:46;;;;;;;;;;;-0.90;99.90;;;;;;4989863;28;3021;-60
2022/12/10 13:45:02;;;;;;;;;;;-1.00;99.90;;;;;;4991251;28;1103;-60
2022/12/10 13:47:41;;;;;;;;;;;-1.10;99.90;;;;;;4989831;28;1997;-59
2022/12/10 13:50:19;;;;;;;;;;;-1.20;99.90;;;;;;4989647;28;1127;-59
2022/12/10 13:53:00;;;;;;;;;;;-1.30;99.90;;;;;;4989010;28;1024;-60
2022/12/10 13:55:32;;;;;;;;;;;-1.20;99.90;;;;;;4955672;28;1156;-60
2022/12/10 13:58:03;;;;;;;;;;;-1.20;99.90;;;;;;4989360;28;1155;-60
2022/12/10 14:00:34;;;;;;;;;;;-1.40;99.90;;;;;;4971805;28;1159;-60
2022/12/10 14:03:09;;;;;;;;;;;-1.40;99.90;;;;;;4989652;28;1175;-60
2022/12/10 14:06:01;;;;;;;;;;;-1.40;99.90;;;;;;4988008;28;1111;-60
2022/12/10 14:08:28;;;;;;;;;;;-1.30;99.90;;;;;;4988889;28;2027;-60
2022/12/10 14:10:55;;;;;;;;;;;-1.20;99.90;;;;;;4989418;28;1143;-60
2022/12/10 14:13:31;;;;;;;;;;;-1.10;99.90;;;;;;4990856;28;1454;-60
2022/12/10 14:16:00;;;;;;;;;;;-1.10;99.90;;;;;;4990831;28;1181;-60
2022/12/10 14:18:27;;;;;;;;;;;-1.10;99.90;;;;;;4991153;28;1142;-60
2022/12/10 14:20:53;;;;;;;;;;;-1.10;99.90;;;;;;4989313;28;1345;-60
2022/12/10 14:23:32;;;;;;;;;;;-1.00;99.90;;;;;;4991428;28;1108;-60
2022/12/10 14:26:02;;;;;;;;;;;-1.00;99.90;;;;;;4990232;28;1221;-60
2022/12/10 14:28:29;;;;;;;;;;;-0.90;99.90;;;;;;4992412;28;1910;-60
2022/12/10 14:30:55;;;;;;;;;;;-1.00;99.90;;;;;;4990683;28;1304;-60
2022/12/10 14:33:22;;;;;;;;;;;-0.90;99.90;;;;;;4989342;28;1406;-60
2022/12/10 14:35:49;;;;;;;;;;;-1.00;99.90;;;;;;4990048;28;1206;-60
2022/12/10 14:38:18;;;;;;;;;;;-1.10;99.90;;;;;;4991215;28;1329;-60
2022/12/10 14:40:44;;;;;;;;;;;-1.10;99.90;;;;;;4987834;28;1262;-60
2022/12/10 14:43:14;;;;;;;;;;;-1.10;99.90;;;;;;4990812;28;1265;-60
2022/12/10 14:45:44;;;;;;;;;;;-1.10;99.90;;;;;;4988862;28;1257;-60
2022/12/10 14:48:16;;;;;;;;;;;-1.20;99.90;;;;;;4989957;28;1918;-60
2022/12/10 14:50:42;;;;;;;;;;;-1.20;99.90;;;;;;4994430;28;1229;-61